Time;durP1;ratioP1;P1;durP2;ratioP2;P2;SDS_P1;SDS_P2;PMS_P1;PMS_P2;Temp;Humidity;BMP_temperature;BMP_pressure;BME280_temperature;BME280_humidity;BME280_pressure;Samples;Min_cycle;Max_cycle;Signal;HPM_P1;HPM_P2
2022/01/21 00:00:27;;;;;;;15.80;2.50;;;3.00;99.90;;;;;;6160123;23;20103;-85
2022/01/21 00:02:53;;;;;;;17.50;3.40;;;3.00;99.90;;;;;;6160469;23;20005;-85
2022/01/21 00:05:20;;;;;;;13.43;2.73;;;3.00;99.90;;;;;;6185180;23;20005;-85
2022/01/21 00:07:47;;;;;;;14.30;2.30;;;3.00;99.90;;;;;;6159546;23;20017;-85
2022/01/21 00:10:13;;;;;;;15.77;2.83;;;3.00;99.90;;;;;;6159700;23;20091;-85
2022/01/21 00:12:39;;;;;;;13.80;2.47;;;3.00;99.90;;;;;;6159834;23;20016;-85
2022/01/21 00:15:07;;;;;;;11.70;2.30;;;3.00;99.90;;;;;;6159607;23;20009;-86
2022/01/21 00:17:36;;;;;;;12.50;2.23;;;2.90;99.90;;;;;;6159480;23;20335;-86
2022/01/21 00:31:00;;;;;;;10.77;2.30;;;3.00;99.90;;;;;;6189062;23;20013;-85
2022/01/21 00:33:25;;;;;;;10.40;2.60;;;2.90;99.90;;;;;;6189330;23;20427;-85
2022/01/21 00:35:51;;;;;;;11.97;2.57;;;2.90;99.90;;;;;;6188996;23;20095;-85
2022/01/21 00:38:17;;;;;;;15.47;3.03;;;3.00;99.90;;;;;;6163254;23;20020;-87
2022/01/21 00:40:43;;;;;;;13.73;2.83;;;2.90;99.90;;;;;;6188850;23;20344;-85
2022/01/21 00:43:29;;;;;;;12.30;2.77;;;2.90;99.90;;;;;;6189601;23;20320;-85
2022/01/21 00:45:55;;;;;;;14.07;2.43;;;2.90;99.90;;;;;;6188891;23;20008;-86
2022/01/21 00:48:21;;;;;;;13.80;2.80;;;2.90;99.90;;;;;;6163467;23;20039;-85
2022/01/21 00:50:50;;;;;;;12.07;2.60;;;2.90;99.90;;;;;;6163924;23;20017;-86
2022/01/21 00:53:15;;;;;;;14.57;3.03;;;2.90;99.90;;;;;;6163938;23;20432;-85
2022/01/21 00:55:41;;;;;;;11.87;2.13;;;2.90;99.90;;;;;;6188994;23;20122;-85
2022/01/21 00:58:07;;;;;;;11.23;2.57;;;3.00;99.90;;;;;;6188270;23;20027;-86
2022/01/21 01:00:33;;;;;;;13.67;2.63;;;2.90;99.90;;;;;;6163662;23;20012;-85
2022/01/21 01:03:00;;;;;;;14.67;2.57;;;2.90;99.90;;;;;;6163948;23;20005;-86
2022/01/21 01:05:27;;;;;;;10.50;2.40;;;3.00;99.90;;;;;;6213682;23;20032;-86
2022/01/21 01:07:54;;;;;;;11.87;2.50;;;3.00;99.90;;;;;;6163291;23;20427;-85
2022/01/21 01:10:35;;;;;;;11.83;2.13;;;3.00;99.90;;;;;;6163813;23;20008;-85
2022/01/21 01:19:55;;;;;;;9.87;2.67;;;3.00;99.90;;;;;;6163775;23;20012;-86
2022/01/21 01:21:20;;;;;;;17.30;2.27;;;3.00;99.90;;;;;;6188653;23;20012;-86
2022/01/21 01:29:11;;;;;;;13.83;2.67;;;2.90;99.90;;;;;;6188029;23;20446;-85
2022/01/21 01:31:38;;;;;;;16.13;2.47;;;2.90;99.90;;;;;;6188854;23;20048;-86
2022/01/21 01:34:04;;;;;;;14.67;4.00;;;2.90;99.90;;;;;;6164279;23;20004;-86
2022/01/21 01:36:31;;;;;;;19.30;5.60;;;2.90;99.90;;;;;;6215229;23;20343;-86
2022/01/21 01:39:08;;;;;;;13.67;2.77;;;2.90;99.90;;;;;;6188310;23;20343;-86
2022/01/21 01:41:41;;;;;;;10.53;2.57;;;2.90;99.90;;;;;;6163802;23;20012;-86
2022/01/21 01:49:37;;;;;;;11.90;2.00;;;2.90;99.90;;;;;;6188141;23;20014;-85
2022/01/21 01:52:15;;;;;;;14.70;2.93;;;2.90;99.90;;;;;;6164131;23;20004;-85
2022/01/21 01:54:49;;;;;;;13.75;2.58;;;2.90;99.90;;;;;;6164046;23;20466;-85
2022/01/21 01:57:15;;;;;;;12.60;2.83;;;2.90;99.90;;;;;;6163662;23;20031;-86
2022/01/21 01:59:41;;;;;;;14.20;2.60;;;2.90;99.90;;;;;;6163478;23;20016;-85
2022/01/21 02:02:09;;;;;;;15.33;3.70;;;2.90;99.90;;;;;;6164071;23;20008;-86
2022/01/21 02:04:37;;;;;;;12.00;2.93;;;2.90;99.90;;;;;;6164188;23;20015;-86
2022/01/21 02:07:04;;;;;;;11.73;2.70;;;2.90;99.90;;;;;;6188669;23;20095;-86
2022/01/21 02:09:30;;;;;;;13.63;3.53;;;3.00;99.90;;;;;;6188507;23;20009;-86
2022/01/21 02:11:56;;;;;;;12.57;3.17;;;3.00;99.90;;;;;;6164065;23;20009;-85
2022/01/21 02:14:28;;;;;;;17.07;2.60;;;3.00;99.90;;;;;;6164015;23;20047;-86
2022/01/21 02:22:05;;;;;;;12.17;2.50;;;3.00;99.90;;;;;;6188872;23;20016;-85
2022/01/21 02:24:45;;;;;;;7.17;2.10;;;3.00;99.90;;;;;;6189160;23;20542;-86
2022/01/21 02:27:11;;;;;;;12.30;2.97;;;3.00;99.90;;;;;;6164273;23;20115;-85
2022/01/21 02:29:45;;;;;;;12.47;2.47;;;3.00;99.90;;;;;;6163808;23;20468;-86
2022/01/21 02:32:12;;;;;;;12.47;2.30;;;3.00;99.90;;;;;;6165567;23;20012;-85
2022/01/21 02:34:38;;;;;;;16.83;2.80;;;3.00;99.90;;;;;;6191295;23;20009;-86
2022/01/21 02:37:04;;;;;;;11.00;2.67;;;3.00;99.90;;;;;;6166311;23;20091;-86
2022/01/21 02:39:31;;;;;;;12.77;3.20;;;3.00;99.90;;;;;;6166608;23;20040;-86
2022/01/21 02:41:57;;;;;;;11.57;2.57;;;3.10;99.90;;;;;;6166934;23;20036;-86
2022/01/21 02:44:24;;;;;;;9.43;2.60;;;3.10;99.90;;;;;;6166798;23;20016;-86
2022/01/21 02:46:55;;;;;;;12.67;2.40;;;3.10;99.90;;;;;;6167028;23;20008;-85
2022/01/21 02:49:23;;;;;;;12.57;2.20;;;3.10;99.90;;;;;;6167519;23;20016;-86
2022/01/21 02:51:54;;;;;;;12.37;2.63;;;3.10;99.90;;;;;;6166811;23;20058;-86
2022/01/21 02:54:20;;;;;;;10.80;1.80;;;3.10;99.90;;;;;;6166591;23;20012;-85
2022/01/21 02:56:46;;;;;;;11.23;3.23;;;3.10;99.90;;;;;;6167241;23;20008;-86
2022/01/21 02:59:12;;;;;;;8.73;2.13;;;3.10;99.90;;;;;;6217254;23;20375;-86
2022/01/21 03:01:41;;;;;;;13.30;2.10;;;3.10;99.90;;;;;;6167108;23;20071;-86
2022/01/21 03:04:10;;;;;;;11.70;3.03;;;3.10;99.90;;;;;;6166929;23;20058;-85
2022/01/21 03:06:39;;;;;;;11.23;2.80;;;3.10;99.90;;;;;;6166615;23;20383;-85
2022/01/21 03:09:08;;;;;;;12.80;2.37;;;3.10;99.90;;;;;;6166962;23;20012;-86
2022/01/21 03:11:34;;;;;;;13.17;2.47;;;3.10;99.90;;;;;;6191434;23;20354;-85
2022/01/21 03:14:01;;;;;;;14.57;3.07;;;3.00;99.90;;;;;;6215766;23;20004;-85
2022/01/21 03:16:27;;;;;;;12.77;2.80;;;3.10;99.90;;;;;;6165595;23;20392;-86
2022/01/21 03:18:53;;;;;;;11.40;2.30;;;3.00;99.90;;;;;;6165859;23;20012;-86
2022/01/21 03:21:18;;;;;;;13.97;2.27;;;3.00;99.90;;;;;;6190514;23;20435;-85
2022/01/21 03:23:50;;;;;;;15.43;2.30;;;3.00;99.90;;;;;;6190429;23;20005;-85
2022/01/21 03:26:20;;;;;;;11.97;2.73;;;3.00;99.90;;;;;;6166104;23;20036;-86
2022/01/21 03:28:56;;;;;;;10.90;1.97;;;3.00;99.90;;;;;;6165782;23;20012;-86
2022/01/21 03:31:24;;;;;;;11.83;2.53;;;3.00;99.90;;;;;;6166860;23;20016;-86
2022/01/21 03:33:52;;;;;;;10.77;2.17;;;2.90;99.90;;;;;;6165256;23;20009;-85
2022/01/21 03:36:18;;;;;;;10.60;2.37;;;2.90;99.90;;;;;;6167811;23;20012;-85
2022/01/21 03:38:44;;;;;;;13.17;2.70;;;2.90;99.90;;;;;;6164760;23;20066;-85
2022/01/21 03:41:11;;;;;;;13.30;2.67;;;2.90;99.90;;;;;;6165060;23;20042;-86
2022/01/21 03:43:37;;;;;;;15.53;3.17;;;2.80;99.90;;;;;;6189525;23;20005;-86
2022/01/21 03:46:04;;;;;;;13.53;2.97;;;2.90;99.90;;;;;;6165421;23;20001;-86
2022/01/21 03:48:31;;;;;;;13.47;2.90;;;2.90;99.90;;;;;;6189321;23;20382;-86
2022/01/21 03:50:57;;;;;;;14.73;2.90;;;2.90;99.90;;;;;;6164998;23;20343;-85
2022/01/21 03:53:23;;;;;;;12.47;2.90;;;2.90;99.90;;;;;;6164994;23;20047;-86
2022/01/21 03:55:50;;;;;;;13.07;2.53;;;2.90;99.90;;;;;;6165492;23;20031;-85
2022/01/21 03:58:15;;;;;;;11.40;2.13;;;2.90;99.90;;;;;;6164422;23;20455;-85
2022/01/21 04:00:54;;;;;;;14.43;3.35;;;2.80;99.90;;;;;;6165997;23;20009;-86
2022/01/21 04:03:21;;;;;;;13.23;2.53;;;2.80;99.90;;;;;;6165207;23;20004;-86
2022/01/21 04:05:48;;;;;;;10.87;2.13;;;2.90;99.90;;;;;;6165994;23;20343;-86
2022/01/21 04:08:14;;;;;;;9.97;2.20;;;2.80;99.90;;;;;;6165117;23;20011;-86
2022/01/21 04:10:48;;;;;;;12.07;2.10;;;2.80;99.90;;;;;;6167256;23;20403;-86
2022/01/21 04:13:18;;;;;;;10.07;2.10;;;2.80;99.90;;;;;;6166174;23;20016;-85
2022/01/21 04:15:51;;;;;;;15.47;2.57;;;2.80;99.90;;;;;;6166973;23;20012;-85
2022/01/21 04:18:18;;;;;;;15.10;3.10;;;2.90;99.90;;;;;;6165191;23;20012;-86
2022/01/21 04:20:50;;;;;;;16.07;2.37;;;2.90;99.90;;;;;;6191610;23;20008;-86
2022/01/21 04:23:17;;;;;;;11.77;2.30;;;2.90;99.90;;;;;;6166741;23;20086;-85
2022/01/21 04:25:44;;;;;;;15.00;3.40;;;2.90;99.90;;;;;;6166666;23;20439;-86
2022/01/21 04:28:10;;;;;;;11.80;2.97;;;2.90;99.90;;;;;;6144909;23;20009;-85
2022/01/21 04:30:37;;;;;;;14.80;3.17;;;2.90;99.90;;;;;;6162301;23;20020;-85
2022/01/21 04:33:04;;;;;;;12.17;3.00;;;2.90;99.90;;;;;;6161939;23;20009;-85
2022/01/21 04:35:31;;;;;;;14.20;3.30;;;2.90;99.90;;;;;;6187707;23;20073;-86
2022/01/21 04:38:02;;;;;;;13.90;3.47;;;2.90;99.90;;;;;;6161933;23;20016;-86
2022/01/21 04:40:31;;;;;;;12.10;2.70;;;2.90;99.90;;;;;;6162101;23;20067;-85
2022/01/21 04:48:32;;;;;;;11.67;1.87;;;2.90;99.90;;;;;;6161789;23;20005;-86
2022/01/21 04:51:12;;;;;;;9.57;1.90;;;2.90;99.90;;;;;;6160758;23;20009;-86
2022/01/21 04:53:38;;;;;;;;;;;2.90;99.90;;;;;;6161434;23;20009;-86
2022/01/21 04:56:30;;;;;;;12.23;2.50;;;2.90;99.90;;;;;;6182499;23;19904;-86
2022/01/21 04:58:56;;;;;;;10.80;2.70;;;2.90;99.90;;;;;;6190711;23;20031;-86
2022/01/21 05:01:22;;;;;;;13.87;3.10;;;2.90;99.90;;;;;;6166055;23;20440;-86
2022/01/21 05:03:49;;;;;;;12.23;2.80;;;2.90;99.90;;;;;;6163786;23;20008;-85
2022/01/21 05:06:15;;;;;;;14.70;2.50;;;3.00;99.90;;;;;;6161197;23;20012;-85
2022/01/21 05:08:47;;;;;;;11.07;3.13;;;2.90;99.90;;;;;;6133432;23;20084;-85
2022/01/21 05:11:14;;;;;;;13.63;3.40;;;2.90;99.90;;;;;;6158439;23;20017;-85
2022/01/21 05:13:44;;;;;;;16.93;3.00;;;2.90;99.90;;;;;;6158535;23;20009;-86
2022/01/21 05:16:34;;;;;;;12.30;3.87;;;2.90;99.90;;;;;;6183253;23;20040;-85
2022/01/21 05:19:12;;;;;;;16.23;3.37;;;2.90;99.90;;;;;;6157834;23;20013;-85
2022/01/21 05:22:07;;;;;;;17.90;4.60;;;2.90;99.90;;;;;;6130332;23;20013;-85
2022/01/21 05:24:38;;;;;;;18.83;3.60;;;2.90;99.90;;;;;;6134718;23;20016;-85
2022/01/21 05:27:06;;;;;;;13.90;3.00;;;2.90;99.90;;;;;;6182420;23;19997;-83
2022/01/21 05:29:42;;;;;;;12.80;3.03;;;2.90;99.90;;;;;;6167958;23;20005;-83
2022/01/21 05:32:21;;;;;;;16.60;3.13;;;2.90;99.90;;;;;;6190831;23;20032;-83
2022/01/21 05:35:06;;;;;;;14.40;3.10;;;2.90;99.90;;;;;;6175520;23;20041;-83
2022/01/21 05:37:52;;;;;;;16.30;3.50;;;2.90;99.90;;;;;;6132452;23;20064;-83
2022/01/21 05:40:28;;;;;;;17.00;3.17;;;2.90;99.90;;;;;;6149422;23;20017;-82
2022/01/21 05:43:00;;;;;;;16.27;3.33;;;3.00;99.90;;;;;;6196021;23;20020;-84
2022/01/21 05:48:31;;;;;;;14.83;4.47;;;2.90;99.90;;;;;;6197737;23;20069;-83
2022/01/21 05:51:00;;;;;;;18.48;4.70;;;2.90;99.90;;;;;;6194970;23;20429;-84
2022/01/21 05:53:40;;;;;;;16.10;4.03;;;2.90;99.90;;;;;;6190104;23;20013;-83
2022/01/21 05:56:41;;;;;;;19.47;4.30;;;2.90;99.90;;;;;;6162909;23;20060;-83
2022/01/21 05:59:19;;;;;;;11.83;3.23;;;2.90;99.90;;;;;;6189009;23;20136;-84
2022/01/21 06:01:45;;;;;;;14.53;3.40;;;2.90;99.90;;;;;;6167717;23;20037;-84
2022/01/21 06:04:12;;;;;;;10.50;3.50;;;3.00;99.90;;;;;;6192249;23;20001;-83
2022/01/21 06:06:38;;;;;;;21.70;4.00;;;3.00;99.90;;;;;;6167017;23;20048;-84
2022/01/21 06:09:06;;;;;;;18.40;3.63;;;3.00;99.90;;;;;;6191829;23;20001;-83
2022/01/21 06:11:32;;;;;;;19.37;3.40;;;3.00;99.90;;;;;;6192016;23;20092;-83
2022/01/21 06:13:59;;;;;;;16.30;3.63;;;2.90;99.90;;;;;;6192279;23;20032;-84
2022/01/21 06:16:25;;;;;;;15.57;3.80;;;2.90;99.90;;;;;;6192489;23;20009;-84
2022/01/21 06:18:51;;;;;;;13.17;4.13;;;2.90;99.90;;;;;;6166772;23;20016;-83
2022/01/21 06:21:17;;;;;;;21.00;4.47;;;2.90;99.90;;;;;;6190941;23;20088;-84
2022/01/21 06:23:43;;;;;;;23.80;5.67;;;2.80;99.90;;;;;;6169903;23;20005;-84
2022/01/21 06:26:12;;;;;;;22.90;4.75;;;2.90;99.90;;;;;;6197030;23;20005;-84
2022/01/21 06:28:38;;;;;;;23.93;6.13;;;2.90;99.90;;;;;;6187379;23;20005;-84
2022/01/21 06:31:03;;;;;;;24.43;6.30;;;2.90;99.90;;;;;;6195695;23;20001;-84
2022/01/21 06:33:29;;;;;;;17.27;5.30;;;2.80;99.90;;;;;;6194580;23;20013;-84
2022/01/21 06:35:55;;;;;;;23.03;5.10;;;2.80;99.90;;;;;;6194767;23;20016;-84
2022/01/21 06:38:22;;;;;;;18.10;4.40;;;2.80;99.90;;;;;;6193555;23;20009;-84
2022/01/21 06:40:49;;;;;;;18.43;4.23;;;2.80;99.90;;;;;;6192401;23;20005;-84
2022/01/21 06:43:16;;;;;;;28.53;9.03;;;2.70;99.90;;;;;;6193850;23;20001;-83
2022/01/21 06:45:42;;;;;;;15.83;4.80;;;2.70;99.90;;;;;;6191563;23;20009;-84
2022/01/21 06:48:08;;;;;;;17.73;4.63;;;2.70;99.90;;;;;;6191984;23;20423;-84
2022/01/21 06:50:42;;;;;;;14.93;4.93;;;2.70;99.90;;;;;;6217334;23;20009;-83
2022/01/21 06:53:08;;;;;;;18.10;4.33;;;2.70;99.90;;;;;;6192234;23;20024;-84
2022/01/21 06:55:34;;;;;;;19.47;4.60;;;2.70;99.90;;;;;;6216435;23;20005;-84
2022/01/21 06:58:00;;;;;;;24.53;4.93;;;2.70;99.90;;;;;;6216697;23;20024;-83
2022/01/21 07:00:26;;;;;;;17.23;5.80;;;2.70;99.90;;;;;;6190940;23;20067;-83
2022/01/21 07:02:53;;;;;;;25.20;7.17;;;2.60;99.90;;;;;;6190630;23;19997;-84
2022/01/21 07:05:22;;;;;;;24.97;8.07;;;2.70;99.90;;;;;;6191557;23;20044;-84
2022/01/21 07:07:49;;;;;;;28.80;7.93;;;2.70;99.90;;;;;;6190700;23;20077;-84
2022/01/21 07:10:15;;;;;;;20.57;5.90;;;2.70;99.90;;;;;;6215639;23;20240;-84
2022/01/21 07:12:44;;;;;;;21.90;5.67;;;2.70;99.90;;;;;;6190834;23;20013;-83
2022/01/21 07:15:11;;;;;;;19.67;4.67;;;2.80;99.90;;;;;;6190977;23;20009;-84
2022/01/21 07:17:37;;;;;;;17.00;4.33;;;2.80;99.90;;;;;;6189829;23;20344;-84
2022/01/21 07:20:05;;;;;;;17.67;4.80;;;2.70;99.90;;;;;;6192060;23;20020;-85
2022/01/21 07:22:31;;;;;;;13.33;4.13;;;2.80;99.90;;;;;;6192612;23;20051;-85
2022/01/21 07:24:57;;;;;;;16.10;3.97;;;2.70;99.90;;;;;;6217572;23;20028;-84
2022/01/21 07:27:24;;;;;;;21.73;4.57;;;2.70;99.90;;;;;;6195288;23;20009;-84
2022/01/21 07:29:50;;;;;;;14.83;4.70;;;2.70;99.90;;;;;;6218297;23;20005;-84
2022/01/21 07:32:16;;;;;;;14.97;3.97;;;2.80;99.90;;;;;;6195371;23;20061;-83
2022/01/21 07:34:42;;;;;;;11.70;3.70;;;2.70;99.90;;;;;;6220249;23;20031;-83
2022/01/21 07:37:07;;;;;;;16.17;4.17;;;2.70;99.90;;;;;;6195129;23;20513;-83
2022/01/21 07:39:33;;;;;;;16.83;4.40;;;2.70;99.90;;;;;;6169672;23;20005;-83
2022/01/21 07:41:59;;;;;;;15.73;4.23;;;2.70;99.90;;;;;;6194838;23;20447;-83
2022/01/21 07:44:25;;;;;;;16.33;4.97;;;2.70;99.90;;;;;;6191080;23;20005;-85
2022/01/21 07:46:50;;;;;;;17.03;5.17;;;2.70;99.90;;;;;;6184968;23;20020;-83
2022/01/21 07:49:17;;;;;;;17.40;4.53;;;2.70;99.90;;;;;;6184848;23;20005;-84
2022/01/21 07:51:44;;;;;;;14.53;4.27;;;2.70;99.90;;;;;;6188502;23;20031;-83
2022/01/21 07:54:10;;;;;;;18.57;5.07;;;2.60;99.90;;;;;;6193901;23;20028;-83
2022/01/21 07:56:37;;;;;;;15.47;5.00;;;2.60;99.90;;;;;;6194366;23;20012;-83
2022/01/21 07:59:09;;;;;;;19.93;5.37;;;2.60;99.90;;;;;;6218059;23;20462;-82
2022/01/21 08:01:35;;;;;;;17.60;5.87;;;2.60;99.90;;;;;;6191444;23;20040;-83
2022/01/21 08:04:02;;;;;;;17.73;4.57;;;2.60;99.90;;;;;;6184450;23;20055;-83
2022/01/21 08:06:28;;;;;;;14.73;4.60;;;2.70;99.90;;;;;;6184618;23;20402;-82
2022/01/21 08:08:54;;;;;;;14.80;4.47;;;2.70;99.90;;;;;;6209251;23;20340;-86
2022/01/21 08:11:21;;;;;;;15.63;5.23;;;2.70;99.90;;;;;;6185324;23;20092;-83
2022/01/21 08:13:47;;;;;;;14.70;4.20;;;2.70;99.90;;;;;;6186418;23;20028;-86
2022/01/21 08:16:13;;;;;;;14.50;4.10;;;2.70;99.90;;;;;;6210142;23;20036;-83
2022/01/21 08:18:38;;;;;;;15.10;4.13;;;2.80;99.90;;;;;;6208739;23;20024;-85
2022/01/21 08:21:04;;;;;;;14.57;4.20;;;2.70;99.90;;;;;;6183806;23;20001;-83
2022/01/21 08:23:30;;;;;;;14.83;4.23;;;2.70;99.90;;;;;;6186265;23;20009;-84
2022/01/21 08:25:56;;;;;;;17.03;4.27;;;2.70;99.90;;;;;;6185508;23;20005;-83
2022/01/21 08:28:22;;;;;;;12.57;3.70;;;2.70;99.90;;;;;;6183399;23;20013;-84
2022/01/21 08:30:48;;;;;;;12.63;4.10;;;2.80;99.90;;;;;;6183812;23;20326;-84
2022/01/21 08:33:14;;;;;;;14.10;4.10;;;2.80;99.90;;;;;;6184208;23;20067;-83
2022/01/21 08:35:40;;;;;;;13.47;3.97;;;2.80;99.90;;;;;;6184430;23;20040;-83
2022/01/21 08:38:06;;;;;;;10.00;3.80;;;2.80;99.90;;;;;;6183146;23;20051;-84
2022/01/21 08:40:32;;;;;;;17.33;4.83;;;2.80;99.90;;;;;;6209009;23;20056;-84
2022/01/21 08:42:58;;;;;;;13.63;4.40;;;2.80;99.90;;;;;;6185921;23;20380;-84
2022/01/21 08:45:24;;;;;;;15.20;3.60;;;2.80;99.90;;;;;;6159843;23;20005;-83
2022/01/21 08:47:50;;;;;;;19.03;4.20;;;2.80;99.90;;;;;;6183484;23;20001;-83
2022/01/21 08:50:18;;;;;;;12.90;4.23;;;2.80;99.90;;;;;;6184262;23;20059;-83
2022/01/21 08:52:48;;;;;;;14.55;4.00;;;2.80;99.90;;;;;;6187699;23;20025;-83
2022/01/21 08:55:17;;;;;;;11.20;3.77;;;2.80;99.90;;;;;;6216146;23;20009;-82
2022/01/21 08:57:44;;;;;;;13.82;4.25;;;2.70;99.90;;;;;;6193887;23;20088;-83
2022/01/21 09:00:21;;;;;;;13.20;4.07;;;2.70;99.90;;;;;;6169524;23;20009;-83
2022/01/21 09:02:47;;;;;;;13.77;3.77;;;2.80;99.90;;;;;;6194556;23;20005;-83
2022/01/21 09:05:13;;;;;;;17.67;4.07;;;2.80;99.90;;;;;;6192955;23;20629;-82
2022/01/21 09:07:40;;;;;;;16.50;4.07;;;2.80;99.90;;;;;;6208089;23;20009;-82
2022/01/21 09:10:07;;;;;;;9.60;3.83;;;2.80;99.90;;;;;;6183566;23;20024;-83
2022/01/21 09:12:33;;;;;;;16.43;4.37;;;2.90;99.90;;;;;;6183772;23;20009;-85
2022/01/21 09:14:59;;;;;;;13.17;4.10;;;2.90;99.90;;;;;;6208707;23;20344;-82
2022/01/21 09:17:25;;;;;;;15.73;4.10;;;2.90;99.90;;;;;;6208760;23;20096;-83
2022/01/21 09:19:51;;;;;;;17.67;4.30;;;2.90;99.90;;;;;;6208137;23;20005;-84
2022/01/21 09:22:17;;;;;;;15.30;4.40;;;3.00;99.90;;;;;;6208909;23;20067;-82
2022/01/21 09:24:43;;;;;;;14.27;4.33;;;3.00;99.90;;;;;;6209339;23;20058;-84
2022/01/21 09:27:09;;;;;;;12.87;4.00;;;3.00;99.90;;;;;;6184375;23;20032;-82
2022/01/21 09:29:35;;;;;;;15.77;4.37;;;3.00;99.90;;;;;;6183246;23;20005;-82
2022/01/21 09:32:04;;;;;;;13.70;4.17;;;3.00;99.90;;;;;;6184072;23;20428;-84
2022/01/21 09:34:30;;;;;;;15.65;4.88;;;3.10;99.90;;;;;;6192728;23;20424;-82
2022/01/21 09:36:59;;;;;;;12.30;4.63;;;3.10;99.90;;;;;;6193022;23;20005;-83
2022/01/21 09:39:26;;;;;;;16.73;4.15;;;3.10;99.90;;;;;;6189814;23;20036;-84
2022/01/21 09:41:54;;;;;;;13.10;4.50;;;3.10;99.90;;;;;;6159410;23;20013;-84
2022/01/21 09:44:21;;;;;;;11.00;4.70;;;3.20;99.90;;;;;;6184990;23;20005;-84
2022/01/21 09:46:50;;;;;;;15.13;4.70;;;3.30;99.90;;;;;;6185036;23;20032;-83
2022/01/21 09:49:35;;;;;;;13.73;3.92;;;3.30;99.90;;;;;;6187192;23;20076;-83
2022/01/21 09:52:07;;;;;;;15.90;4.33;;;3.40;99.90;;;;;;6159881;23;20087;-82
2022/01/21 09:54:36;;;;;;;17.47;4.20;;;3.40;99.90;;;;;;6186592;23;20462;-85
2022/01/21 09:57:04;;;;;;;11.27;4.28;;;3.40;99.90;;;;;;6159895;23;20013;-86
2022/01/21 09:59:36;;;;;;;11.70;3.83;;;3.50;99.90;;;;;;6159787;23;20063;-86
2022/01/21 10:02:07;;;;;;;12.30;4.20;;;3.60;99.90;;;;;;6159935;23;20056;-83
2022/01/21 10:04:37;;;;;;;14.60;4.40;;;3.60;99.90;;;;;;6185191;23;20072;-85
2022/01/21 10:07:04;;;;;;;15.75;5.13;;;3.60;99.90;;;;;;6186605;23;20029;-82
2022/01/21 10:09:30;;;;;;;22.37;8.03;;;3.60;99.90;;;;;;6158719;23;20439;-82
2022/01/21 10:11:58;;;;;;;23.37;7.07;;;3.70;99.90;;;;;;6184487;23;20009;-85
2022/01/21 10:14:29;;;;;;;19.27;6.23;;;3.70;99.90;;;;;;6183916;23;20083;-82
2022/01/21 10:16:56;;;;;;;18.07;5.57;;;3.70;99.90;;;;;;6183841;23;20012;-84
2022/01/21 10:19:28;;;;;;;17.43;5.10;;;3.70;99.90;;;;;;6158374;23;20016;-81
2022/01/21 10:22:01;;;;;;;18.63;5.10;;;3.70;99.90;;;;;;6184295;23;20092;-83
2022/01/21 10:24:27;;;;;;;22.83;6.70;;;3.80;99.90;;;;;;6159274;23;20012;-82
2022/01/21 10:26:55;;;;;;;19.27;5.17;;;3.90;99.90;;;;;;6159620;23;20012;-84
2022/01/21 10:29:22;;;;;;;23.57;8.33;;;3.90;99.90;;;;;;6183525;23;20008;-84
2022/01/21 10:31:52;;;;;;;21.00;6.10;;;4.00;99.90;;;;;;6186020;23;20009;-84
2022/01/21 10:34:40;;;;;;;16.03;4.17;;;4.10;99.90;;;;;;6184043;23;20013;-85
2022/01/21 10:37:27;;;;;;;17.40;4.47;;;4.20;99.90;;;;;;6186298;23;20375;-84
2022/01/21 10:40:03;;;;;;;16.80;4.10;;;4.30;99.90;;;;;;6183824;23;20339;-84
2022/01/21 10:42:29;;;;;;;14.60;4.83;;;4.40;99.90;;;;;;6159949;23;20075;-84
2022/01/21 10:44:57;;;;;;;19.57;5.10;;;4.50;99.90;;;;;;6184513;23;20011;-84
2022/01/21 10:47:34;;;;;;;17.13;5.27;;;4.50;99.90;;;;;;6186267;23;20009;-82
2022/01/21 10:50:12;;;;;;;15.80;4.47;;;4.50;99.90;;;;;;6184334;23;20002;-84
2022/01/21 10:52:39;;;;;;;17.00;4.93;;;4.60;99.90;;;;;;6186704;23;20309;-84
2022/01/21 10:55:26;;;;;;;20.30;5.47;;;4.60;99.90;;;;;;6136919;23;20016;-85
2022/01/21 10:58:14;;;;;;;18.07;5.57;;;4.70;99.90;;;;;;6161344;23;20429;-85
2022/01/21 11:01:10;;;;;;;24.33;7.47;;;4.60;99.90;;;;;;6188277;23;20440;-82
2022/01/21 11:03:39;;;;;;;24.40;7.20;;;4.70;99.90;;;;;;6162537;23;20024;-85
2022/01/21 11:06:15;;;;;;;24.95;7.68;;;4.70;99.90;;;;;;6187263;23;20004;-83
2022/01/21 11:08:41;;;;;;;32.17;7.37;;;4.70;99.90;;;;;;6161787;23;20001;-84
2022/01/21 11:11:07;;;;;;;22.77;6.40;;;4.60;99.90;;;;;;6187236;23;20065;-84
2022/01/21 11:13:38;;;;;;;20.67;6.33;;;4.70;99.90;;;;;;6189231;23;20009;-84
2022/01/21 11:16:12;;;;;;;26.97;7.47;;;4.70;99.90;;;;;;6162590;23;20009;-83
2022/01/21 11:19:08;;;;;;;24.50;7.30;;;4.80;99.90;;;;;;6162842;23;20013;-82
2022/01/21 11:21:41;;;;;;;28.40;6.93;;;4.80;99.90;;;;;;6187745;23;20008;-84
2022/01/21 11:24:08;;;;;;;24.33;6.53;;;4.80;99.90;;;;;;6162712;23;20016;-84
2022/01/21 11:26:34;;;;;;;21.13;5.83;;;4.80;99.90;;;;;;6187907;23;20015;-84
2022/01/21 11:29:01;;;;;;;27.27;8.30;;;4.80;99.90;;;;;;6188085;23;20503;-83
2022/01/21 11:31:28;;;;;;;28.73;7.03;;;4.90;99.90;;;;;;6194000;23;20005;-84
2022/01/21 11:33:54;;;;;;;19.63;5.17;;;4.80;99.90;;;;;;6194047;23;20013;-84
2022/01/21 11:36:20;;;;;;;28.57;6.97;;;4.90;99.90;;;;;;6194534;23;20016;-84
2022/01/21 11:38:48;;;;;;;21.07;6.60;;;4.90;99.90;;;;;;6217090;23;20012;-86
2022/01/21 11:41:15;;;;;;;22.67;5.93;;;5.00;99.90;;;;;;6192528;23;20032;-86
2022/01/21 11:43:50;;;;;;;26.33;6.67;;;4.90;99.90;;;;;;6193398;23;20006;-86
2022/01/21 11:46:36;;;;;;;31.77;8.57;;;5.00;99.90;;;;;;6189585;23;20068;-85
2022/01/21 11:49:09;;;;;;;27.50;7.70;;;5.10;99.90;;;;;;6188675;23;20019;-83
2022/01/21 11:51:39;;;;;;;21.17;6.33;;;5.10;99.90;;;;;;6216633;23;20466;-84
2022/01/21 11:54:13;;;;;;;23.93;5.83;;;5.10;99.90;;;;;;6191023;23;20001;-84
2022/01/21 11:57:00;;;;;;;17.03;4.60;;;5.10;99.90;;;;;;6209969;23;20017;-82
2022/01/21 11:59:34;;;;;;;18.37;5.77;;;5.00;99.90;;;;;;6185030;23;20009;-83
2022/01/21 12:02:15;;;;;;;19.50;5.27;;;5.00;99.90;;;;;;6183898;23;20011;-82
2022/01/21 12:04:50;;;;;;;23.17;5.10;;;5.10;99.90;;;;;;6208723;23;20425;-83
2022/01/21 12:07:40;;;;;;;12.07;3.60;;;5.10;99.90;;;;;;6184425;23;20009;-82
2022/01/21 12:10:05;;;;;;;;;;;5.20;99.90;;;;;;6209618;23;20105;-81
2022/01/21 12:12:54;;;;;;;20.80;5.27;;;5.20;99.90;;;;;;6159463;23;20275;-82
2022/01/21 12:20:44;;;;;;;18.85;5.80;;;5.20;99.90;;;;;;6186216;23;20229;-81
2022/01/21 12:23:12;;;;;;;14.27;4.40;;;5.20;99.90;;;;;;6210345;23;20005;-81
2022/01/21 12:26:16;;;;;;;18.47;6.00;;;5.20;99.90;;;;;;6188161;23;20028;-81
2022/01/21 12:28:44;;;;;;;19.70;6.57;;;5.20;99.90;;;;;;6185848;23;20398;-81
2022/01/21 12:31:12;;;;;;;15.33;4.93;;;5.20;99.90;;;;;;6187103;23;20009;-84
2022/01/21 12:34:15;;;;;;;19.10;4.90;;;5.20;99.90;;;;;;6203122;23;20013;-81
2022/01/21 12:36:52;;;;;;;32.50;5.33;;;5.30;99.90;;;;;;6211370;23;20020;-81
2022/01/21 12:39:38;;;;;;;18.13;4.70;;;5.30;99.90;;;;;;6212009;23;20348;-81
2022/01/21 12:42:25;;;;;;;20.60;4.87;;;5.40;99.90;;;;;;6186845;23;20019;-81
2022/01/21 12:44:55;;;;;;;20.87;4.87;;;5.50;99.90;;;;;;6187498;23;20005;-81
2022/01/21 12:47:43;;;;;;;13.33;3.27;;;5.50;99.90;;;;;;6187630;23;20012;-81
2022/01/21 12:50:23;;;;;;;16.10;3.77;;;5.50;99.90;;;;;;6211780;23;20025;-81
2022/01/21 12:53:21;;;;;;;14.77;3.57;;;5.50;99.90;;;;;;6183865;23;20013;-81
2022/01/21 12:55:59;;;;;;;12.77;3.53;;;5.50;99.90;;;;;;6210088;23;20013;-81
2022/01/21 12:58:28;;;;;;;16.07;3.60;;;5.50;99.90;;;;;;6184247;23;20009;-82
2022/01/21 13:00:59;;;;;;;12.37;3.80;;;5.50;99.90;;;;;;6160771;23;20008;-82
2022/01/21 13:03:56;;;;;;;19.23;3.43;;;5.50;99.90;;;;;;6185251;23;20008;-81
2022/01/21 13:06:37;;;;;;;16.60;3.67;;;5.50;99.90;;;;;;6210809;23;20033;-82
2022/01/21 13:09:08;;;;;;;26.73;4.23;;;5.50;99.90;;;;;;6193488;23;20009;-82
2022/01/21 13:11:40;;;;;;;15.67;3.93;;;5.60;99.90;;;;;;6195060;23;20029;-83
2022/01/21 13:17:13;;;;;;;20.07;4.13;;;5.60;99.90;;;;;;6193806;23;20017;-83
2022/01/21 13:19:42;;;;;;;16.27;4.03;;;5.60;99.90;;;;;;6192770;23;20079;-84
2022/01/21 13:22:30;;;;;;;16.48;3.90;;;5.60;99.90;;;;;;6168457;23;20015;-84
2022/01/21 13:25:13;;;;;;;17.27;4.17;;;5.70;99.90;;;;;;6193808;23;20340;-83
2022/01/21 13:27:55;;;;;;;17.30;4.30;;;5.60;99.90;;;;;;6192337;23;20078;-83
2022/01/21 13:30:25;;;;;;;15.80;3.70;;;5.60;99.90;;;;;;6193098;23;20015;-84
2022/01/21 13:33:17;;;;;;;14.90;3.65;;;5.60;99.90;;;;;;6192938;23;19997;-83
2022/01/21 13:35:45;;;;;;;12.83;3.30;;;5.70;99.90;;;;;;6189332;23;20032;-84
2022/01/21 13:38:18;;;;;;;16.43;4.40;;;5.70;99.90;;;;;;6192442;23;20059;-83
2022/01/21 13:40:58;;;;;;;15.87;3.57;;;5.60;99.90;;;;;;6193176;23;20009;-84
2022/01/21 13:43:26;;;;;;;14.53;3.30;;;5.60;99.90;;;;;;6193686;23;20016;-83
2022/01/21 13:46:04;;;;;;;12.47;3.67;;;5.70;99.90;;;;;;6193767;23;20499;-84
2022/01/21 13:48:34;;;;;;;17.27;3.53;;;5.70;99.90;;;;;;6192947;23;20009;-83
2022/01/21 13:51:02;;;;;;;13.60;3.60;;;5.60;99.90;;;;;;6218579;23;20004;-83
2022/01/21 13:53:28;;;;;;;15.33;3.37;;;5.70;99.90;;;;;;6169712;23;20020;-82